sensor_id;sensor_type;location;lat;lon;timestamp;P1;durP1;ratioP1;P2;durP2;ratioP2
65825;SDS011;52586;-43.152;172.732;2022-12-11T00:00:40;5.03;;;1.40;;
65825;SDS011;52586;-43.152;172.732;2022-12-11T00:03:11;6.10;;;2.00;;
65825;SDS011;52586;-43.152;172.732;2022-12-11T00:05:42;3.22;;;1.50;;
65825;SDS011;52586;-43.152;172.732;2022-12-11T00:08:15;4.53;;;1.63;;
65825;SDS011;52586;-43.152;172.732;2022-12-11T00:10:46;4.43;;;2.03;;
65825;SDS011;52586;-43.152;172.732;2022-12-11T00:13:18;5.47;;;1.60;;
65825;SDS011;52586;-43.152;172.732;2022-12-11T00:15:48;4.45;;;1.67;;
65825;SDS011;52586;-43.152;172.732;2022-12-11T00:18:19;4.65;;;1.77;;
65825;SDS011;52586;-43.152;172.732;2022-12-11T00:20:50;4.82;;;1.55;;
65825;SDS011;52586;-43.152;172.732;2022-12-11T00:23:22;3.42;;;1.30;;
65825;SDS011;52586;-43.152;172.732;2022-12-11T00:25:54;5.30;;;1.27;;
65825;SDS011;52586;-43.152;172.732;2022-12-11T00:28:24;2.95;;;1.45;;
65825;SDS011;52586;-43.152;172.732;2022-12-11T00:30:55;4.57;;;1.60;;
65825;SDS011;52586;-43.152;172.732;2022-12-11T00:33:26;4.65;;;1.70;;
65825;SDS011;52586;-43.152;172.732;2022-12-11T00:35:57;3.63;;;1.42;;
65825;SDS011;52586;-43.152;172.732;2022-12-11T00:38:29;4.05;;;1.65;;
65825;SDS011;52586;-43.152;172.732;2022-12-11T00:41:00;3.97;;;1.73;;
65825;SDS011;52586;-43.152;172.732;2022-12-11T00:43:31;3.15;;;1.42;;
65825;SDS011;52586;-43.152;172.732;2022-12-11T00:46:02;3.28;;;1.58;;
65825;SDS011;52586;-43.152;172.732;2022-12-11T00:48:33;2.10;;;1.23;;
65825;SDS011;52586;-43.152;172.732;2022-12-11T00:51:03;3.75;;;1.60;;
65825;SDS011;52586;-43.152;172.732;2022-12-11T00:53:37;3.42;;;1.55;;
65825;SDS011;52586;-43.152;172.732;2022-12-11T00:56:12;2.30;;;1.45;;
65825;SDS011;52586;-43.152;172.732;2022-12-11T00:58:44;4.43;;;1.60;;
65825;SDS011;52586;-43.152;172.732;2022-12-11T01:01:16;2.53;;;1.42;;
65825;SDS011;52586;-43.152;172.732;2022-12-11T01:03:49;3.20;;;1.27;;
65825;SDS011;52586;-43.152;172.732;2022-12-11T01:06:21;3.38;;;1.20;;
65825;SDS011;52586;-43.152;172.732;2022-12-11T01:08:55;4.40;;;1.60;;
65825;SDS011;52586;-43.152;172.732;2022-12-11T01:11:41;3.50;;;1.48;;
65825;SDS011;52586;-43.152;172.732;2022-12-11T01:14:12;4.68;;;1.50;;
65825;SDS011;52586;-43.152;172.732;2022-12-11T01:16:43;5.15;;;1.60;;
65825;SDS011;52586;-43.152;172.732;2022-12-11T01:19:14;3.58;;;1.65;;
65825;SDS011;52586;-43.152;172.732;2022-12-11T01:21:44;3.28;;;1.40;;
65825;SDS011;52586;-43.152;172.732;2022-12-11T01:24:17;3.25;;;1.30;;
65825;SDS011;52586;-43.152;172.732;2022-12-11T01:26:48;2.88;;;1.20;;
65825;SDS011;52586;-43.152;172.732;2022-12-11T01:29:19;2.83;;;1.40;;
65825;SDS011;52586;-43.152;172.732;2022-12-11T01:31:50;4.32;;;1.80;;
65825;SDS011;52586;-43.152;172.732;2022-12-11T01:34:20;3.05;;;1.40;;
65825;SDS011;52586;-43.152;172.732;2022-12-11T01:36:51;4.07;;;1.63;;
65825;SDS011;52586;-43.152;172.732;2022-12-11T01:39:24;3.75;;;1.30;;
65825;SDS011;52586;-43.152;172.732;2022-12-11T01:41:56;4.22;;;1.30;;
65825;SDS011;52586;-43.152;172.732;2022-12-11T01:47:28;3.08;;;1.20;;
65825;SDS011;52586;-43.152;172.732;2022-12-11T01:49:59;3.10;;;1.45;;
65825;SDS011;52586;-43.152;172.732;2022-12-11T01:52:30;3.45;;;1.42;;
65825;SDS011;52586;-43.152;172.732;2022-12-11T01:55:03;3.90;;;1.83;;
65825;SDS011;52586;-43.152;172.732;2022-12-11T01:57:35;3.20;;;1.63;;
65825;SDS011;52586;-43.152;172.732;2022-12-11T02:00:09;4.55;;;1.40;;
65825;SDS011;52586;-43.152;172.732;2022-12-11T02:02:40;3.65;;;1.38;;
65825;SDS011;52586;-43.152;172.732;2022-12-11T02:05:14;2.70;;;1.20;;
65825;SDS011;52586;-43.152;172.732;2022-12-11T02:07:46;4.93;;;1.50;;
65825;SDS011;52586;-43.152;172.732;2022-12-11T02:10:21;2.75;;;1.20;;
65825;SDS011;52586;-43.152;172.732;2022-12-11T02:12:58;2.72;;;1.02;;
65825;SDS011;52586;-43.152;172.732;2022-12-11T02:15:33;3.40;;;1.45;;
65825;SDS011;52586;-43.152;172.732;2022-12-11T02:18:12;2.65;;;1.08;;
65825;SDS011;52586;-43.152;172.732;2022-12-11T02:20:48;4.60;;;1.25;;
65825;SDS011;52586;-43.152;172.732;2022-12-11T02:26:29;3.85;;;1.20;;
65825;SDS011;52586;-43.152;172.732;2022-12-11T02:29:21;3.13;;;1.27;;
65825;SDS011;52586;-43.152;172.732;2022-12-11T02:31:56;4.93;;;1.48;;
65825;SDS011;52586;-43.152;172.732;2022-12-11T02:34:32;4.13;;;1.50;;
65825;SDS011;52586;-43.152;172.732;2022-12-11T02:37:08;4.13;;;1.60;;
65825;SDS011;52586;-43.152;172.732;2022-12-11T02:39:44;3.55;;;1.60;;
65825;SDS011;52586;-43.152;172.732;2022-12-11T02:42:17;3.22;;;1.60;;
65825;SDS011;52586;-43.152;172.732;2022-12-11T02:44:52;3.20;;;1.60;;
65825;SDS011;52586;-43.152;172.732;2022-12-11T02:47:24;3.10;;;1.50;;
65825;SDS011;52586;-43.152;172.732;2022-12-11T02:49:57;2.55;;;1.15;;
65825;SDS011;52586;-43.152;172.732;2022-12-11T02:52:31;2.38;;;1.08;;
65825;SDS011;52586;-43.152;172.732;2022-12-11T02:55:04;3.00;;;1.40;;
65825;SDS011;52586;-43.152;172.732;2022-12-11T02:57:38;3.88;;;1.50;;
65825;SDS011;52586;-43.152;172.732;2022-12-11T03:00:14;3.92;;;1.30;;
65825;SDS011;52586;-43.152;172.732;2022-12-11T03:02:47;1.95;;;1.15;;
65825;SDS011;52586;-43.152;172.732;2022-12-11T03:05:17;3.22;;;1.27;;
65825;SDS011;52586;-43.152;172.732;2022-12-11T03:07:49;2.60;;;1.45;;
65825;SDS011;52586;-43.152;172.732;2022-12-11T03:10:20;2.22;;;1.20;;
65825;SDS011;52586;-43.152;172.732;2022-12-11T03:12:51;3.05;;;1.38;;
65825;SDS011;52586;-43.152;172.732;2022-12-11T03:15:29;2.72;;;1.60;;
65825;SDS011;52586;-43.152;172.732;2022-12-11T03:18:08;3.83;;;1.23;;
65825;SDS011;52586;-43.152;172.732;2022-12-11T03:20:49;2.70;;;1.10;;
65825;SDS011;52586;-43.152;172.732;2022-12-11T03:23:29;3.85;;;1.23;;
65825;SDS011;52586;-43.152;172.732;2022-12-11T03:26:07;2.63;;;1.48;;
65825;SDS011;52586;-43.152;172.732;2022-12-11T03:28:42;1.95;;;1.13;;
65825;SDS011;52586;-43.152;172.732;2022-12-11T03:31:20;2.38;;;1.20;;
65825;SDS011;52586;-43.152;172.732;2022-12-11T03:33:55;2.97;;;1.23;;
65825;SDS011;52586;-43.152;172.732;2022-12-11T03:36:30;1.17;;;0.85;;
65825;SDS011;52586;-43.152;172.732;2022-12-11T03:39:05;2.38;;;1.20;;
65825;SDS011;52586;-43.152;172.732;2022-12-11T03:41:39;2.53;;;1.30;;
65825;SDS011;52586;-43.152;172.732;2022-12-11T03:44:11;3.25;;;1.15;;
65825;SDS011;52586;-43.152;172.732;2022-12-11T03:46:46;2.63;;;1.13;;
65825;SDS011;52586;-43.152;172.732;2022-12-11T03:49:18;1.98;;;1.10;;
65825;SDS011;52586;-43.152;172.732;2022-12-11T03:51:51;2.10;;;1.20;;
65825;SDS011;52586;-43.152;172.732;2022-12-11T03:54:24;2.22;;;1.13;;
65825;SDS011;52586;-43.152;172.732;2022-12-11T03:56:56;2.03;;;1.00;;
65825;SDS011;52586;-43.152;172.732;2022-12-11T03:59:29;2.95;;;0.90;;
65825;SDS011;52586;-43.152;172.732;2022-12-11T04:02:02;2.00;;;1.20;;
65825;SDS011;52586;-43.152;172.732;2022-12-11T04:04:36;1.60;;;1.17;;
65825;SDS011;52586;-43.152;172.732;2022-12-11T04:07:08;2.60;;;1.13;;
65825;SDS011;52586;-43.152;172.732;2022-12-11T04:09:39;4.28;;;1.75;;
65825;SDS011;52586;-43.152;172.732;2022-12-11T04:12:10;5.57;;;1.90;;
65825;SDS011;52586;-43.152;172.732;2022-12-11T04:14:41;5.47;;;1.70;;
65825;SDS011;52586;-43.152;172.732;2022-12-11T04:17:32;4.05;;;1.70;;
65825;SDS011;52586;-43.152;172.732;2022-12-11T04:20:20;7.93;;;1.92;;
65825;SDS011;52586;-43.152;172.732;2022-12-11T04:23:10;6.88;;;1.80;;
65825;SDS011;52586;-43.152;172.732;2022-12-11T04:26:02;4.60;;;1.85;;
65825;SDS011;52586;-43.152;172.732;2022-12-11T04:28:34;5.28;;;1.60;;
65825;SDS011;52586;-43.152;172.732;2022-12-11T04:31:05;4.45;;;1.48;;
65825;SDS011;52586;-43.152;172.732;2022-12-11T04:33:41;3.42;;;1.50;;
65825;SDS011;52586;-43.152;172.732;2022-12-11T04:36:12;4.32;;;1.60;;
65825;SDS011;52586;-43.152;172.732;2022-12-11T04:38:43;5.43;;;1.67;;
65825;SDS011;52586;-43.152;172.732;2022-12-11T04:41:14;4.63;;;1.38;;
65825;SDS011;52586;-43.152;172.732;2022-12-11T04:43:45;9.98;;;1.83;;
65825;SDS011;52586;-43.152;172.732;2022-12-11T04:46:17;4.60;;;1.50;;
65825;SDS011;52586;-43.152;172.732;2022-12-11T04:48:51;4.38;;;1.50;;
65825;SDS011;52586;-43.152;172.732;2022-12-11T04:51:22;4.47;;;1.48;;
65825;SDS011;52586;-43.152;172.732;2022-12-11T04:53:54;5.55;;;1.73;;
65825;SDS011;52586;-43.152;172.732;2022-12-11T04:56:25;5.72;;;1.98;;
65825;SDS011;52586;-43.152;172.732;2022-12-11T04:58:56;5.75;;;1.65;;
65825;SDS011;52586;-43.152;172.732;2022-12-11T05:01:27;5.78;;;1.60;;
65825;SDS011;52586;-43.152;172.732;2022-12-11T05:04:00;5.13;;;1.30;;
65825;SDS011;52586;-43.152;172.732;2022-12-11T05:06:30;4.82;;;1.40;;
65825;SDS011;52586;-43.152;172.732;2022-12-11T05:09:01;4.22;;;1.42;;
65825;SDS011;52586;-43.152;172.732;2022-12-11T05:11:32;2.97;;;1.27;;
65825;SDS011;52586;-43.152;172.732;2022-12-11T05:14:04;3.55;;;1.25;;
65825;SDS011;52586;-43.152;172.732;2022-12-11T05:16:34;3.65;;;1.55;;
65825;SDS011;52586;-43.152;172.732;2022-12-11T05:19:07;3.83;;;1.40;;
65825;SDS011;52586;-43.152;172.732;2022-12-11T05:21:38;3.85;;;1.63;;
65825;SDS011;52586;-43.152;172.732;2022-12-11T05:24:09;4.10;;;1.40;;
65825;SDS011;52586;-43.152;172.732;2022-12-11T05:26:39;7.05;;;1.60;;
65825;SDS011;52586;-43.152;172.732;2022-12-11T05:29:10;3.97;;;1.13;;
65825;SDS011;52586;-43.152;172.732;2022-12-11T05:31:41;3.00;;;1.27;;
65825;SDS011;52586;-43.152;172.732;2022-12-11T05:34:16;5.50;;;1.58;;
65825;SDS011;52586;-43.152;172.732;2022-12-11T05:36:47;2.00;;;1.10;;
65825;SDS011;52586;-43.152;172.732;2022-12-11T05:39:18;3.65;;;1.40;;
65825;SDS011;52586;-43.152;172.732;2022-12-11T05:41:49;4.90;;;1.45;;
65825;SDS011;52586;-43.152;172.732;2022-12-11T05:44:20;3.75;;;1.40;;
65825;SDS011;52586;-43.152;172.732;2022-12-11T05:46:50;4.72;;;1.30;;
65825;SDS011;52586;-43.152;172.732;2022-12-11T05:49:23;3.92;;;1.30;;
65825;SDS011;52586;-43.152;172.732;2022-12-11T05:51:54;3.03;;;1.33;;
65825;SDS011;52586;-43.152;172.732;2022-12-11T05:54:25;3.35;;;1.23;;
65825;SDS011;52586;-43.152;172.732;2022-12-11T05:56:56;3.90;;;1.42;;
65825;SDS011;52586;-43.152;172.732;2022-12-11T05:59:26;3.65;;;1.27;;
65825;SDS011;52586;-43.152;172.732;2022-12-11T06:01:57;3.55;;;1.40;;
65825;SDS011;52586;-43.152;172.732;2022-12-11T06:04:30;3.72;;;1.20;;
65825;SDS011;52586;-43.152;172.732;2022-12-11T06:07:01;3.20;;;1.50;;
65825;SDS011;52586;-43.152;172.732;2022-12-11T06:09:31;6.57;;;1.35;;
65825;SDS011;52586;-43.152;172.732;2022-12-11T06:12:02;2.80;;;1.30;;
65825;SDS011;52586;-43.152;172.732;2022-12-11T06:14:34;4.38;;;1.17;;
65825;SDS011;52586;-43.152;172.732;2022-12-11T06:17:06;5.38;;;1.55;;
65825;SDS011;52586;-43.152;172.732;2022-12-11T06:19:38;3.97;;;1.50;;
65825;SDS011;52586;-43.152;172.732;2022-12-11T06:22:09;4.15;;;1.08;;
65825;SDS011;52586;-43.152;172.732;2022-12-11T06:24:40;2.65;;;1.45;;
65825;SDS011;52586;-43.152;172.732;2022-12-11T06:27:13;4.95;;;1.45;;
65825;SDS011;52586;-43.152;172.732;2022-12-11T06:29:44;3.40;;;1.15;;
65825;SDS011;52586;-43.152;172.732;2022-12-11T06:32:15;3.72;;;1.30;;
65825;SDS011;52586;-43.152;172.732;2022-12-11T06:34:48;3.10;;;1.20;;
65825;SDS011;52586;-43.152;172.732;2022-12-11T06:37:19;2.05;;;1.00;;
65825;SDS011;52586;-43.152;172.732;2022-12-11T06:39:50;4.97;;;1.48;;
65825;SDS011;52586;-43.152;172.732;2022-12-11T06:42:21;2.15;;;1.00;;
65825;SDS011;52586;-43.152;172.732;2022-12-11T06:44:52;3.90;;;1.33;;
65825;SDS011;52586;-43.152;172.732;2022-12-11T06:47:25;3.17;;;1.30;;
65825;SDS011;52586;-43.152;172.732;2022-12-11T06:49:58;3.60;;;1.50;;
65825;SDS011;52586;-43.152;172.732;2022-12-11T06:52:29;2.50;;;1.20;;
65825;SDS011;52586;-43.152;172.732;2022-12-11T06:55:00;2.63;;;1.23;;
65825;SDS011;52586;-43.152;172.732;2022-12-11T06:57:31;2.20;;;1.15;;
65825;SDS011;52586;-43.152;172.732;2022-12-11T07:00:02;3.22;;;1.27;;
65825;SDS011;52586;-43.152;172.732;2022-12-11T07:02:34;1.58;;;1.00;;
65825;SDS011;52586;-43.152;172.732;2022-12-11T07:05:07;3.17;;;1.38;;
65825;SDS011;52586;-43.152;172.732;2022-12-11T07:07:38;1.92;;;1.10;;
65825;SDS011;52586;-43.152;172.732;2022-12-11T07:10:10;2.30;;;1.10;;
65825;SDS011;52586;-43.152;172.732;2022-12-11T07:12:41;2.40;;;1.08;;
65825;SDS011;52586;-43.152;172.732;2022-12-11T07:15:12;2.80;;;1.13;;
65825;SDS011;52586;-43.152;172.732;2022-12-11T07:17:43;3.22;;;1.20;;
65825;SDS011;52586;-43.152;172.732;2022-12-11T07:20:15;2.85;;;1.20;;
65825;SDS011;52586;-43.152;172.732;2022-12-11T07:22:46;2.63;;;1.30;;
65825;SDS011;52586;-43.152;172.732;2022-12-11T07:25:17;2.60;;;1.27;;
65825;SDS011;52586;-43.152;172.732;2022-12-11T07:27:48;3.10;;;1.08;;
65825;SDS011;52586;-43.152;172.732;2022-12-11T07:30:19;3.08;;;1.40;;
65825;SDS011;52586;-43.152;172.732;2022-12-11T07:32:49;2.95;;;1.33;;
65825;SDS011;52586;-43.152;172.732;2022-12-11T07:35:22;2.13;;;1.25;;
65825;SDS011;52586;-43.152;172.732;2022-12-11T07:37:53;2.53;;;1.13;;
65825;SDS011;52586;-43.152;172.732;2022-12-11T07:40:24;1.65;;;0.77;;
65825;SDS011;52586;-43.152;172.732;2022-12-11T07:42:55;3.05;;;1.27;;
65825;SDS011;52586;-43.152;172.732;2022-12-11T07:45:26;1.65;;;0.98;;
65825;SDS011;52586;-43.152;172.732;2022-12-11T07:47:58;1.50;;;0.80;;
65825;SDS011;52586;-43.152;172.732;2022-12-11T07:50:30;3.38;;;1.42;;
65825;SDS011;52586;-43.152;172.732;2022-12-11T07:53:01;2.38;;;1.20;;
65825;SDS011;52586;-43.152;172.732;2022-12-11T07:55:32;1.63;;;0.90;;
65825;SDS011;52586;-43.152;172.732;2022-12-11T07:58:03;1.92;;;0.80;;
65825;SDS011;52586;-43.152;172.732;2022-12-11T08:00:34;3.50;;;1.00;;
65825;SDS011;52586;-43.152;172.732;2022-12-11T08:03:05;2.22;;;1.35;;
65825;SDS011;52586;-43.152;172.732;2022-12-11T08:05:38;1.88;;;1.20;;
65825;SDS011;52586;-43.152;172.732;2022-12-11T08:08:14;1.92;;;1.20;;
65825;SDS011;52586;-43.152;172.732;2022-12-11T08:10:45;2.40;;;1.10;;
65825;SDS011;52586;-43.152;172.732;2022-12-11T08:13:15;3.35;;;1.27;;
65825;SDS011;52586;-43.152;172.732;2022-12-11T08:15:46;1.77;;;1.00;;
65825;SDS011;52586;-43.152;172.732;2022-12-11T08:18:17;1.83;;;1.10;;
65825;SDS011;52586;-43.152;172.732;2022-12-11T08:20:49;2.63;;;1.52;;
65825;SDS011;52586;-43.152;172.732;2022-12-11T08:23:20;1.45;;;1.05;;
65825;SDS011;52586;-43.152;172.732;2022-12-11T08:25:51;2.45;;;0.93;;
65825;SDS011;52586;-43.152;172.732;2022-12-11T08:28:22;2.10;;;1.08;;
65825;SDS011;52586;-43.152;172.732;2022-12-11T08:30:52;1.50;;;0.85;;
65825;SDS011;52586;-43.152;172.732;2022-12-11T08:33:24;2.35;;;1.33;;
65825;SDS011;52586;-43.152;172.732;2022-12-11T08:35:57;2.97;;;1.30;;
65825;SDS011;52586;-43.152;172.732;2022-12-11T08:38:31;2.25;;;0.90;;
65825;SDS011;52586;-43.152;172.732;2022-12-11T08:41:07;1.85;;;0.88;;
65825;SDS011;52586;-43.152;172.732;2022-12-11T08:43:39;1.80;;;0.93;;
65825;SDS011;52586;-43.152;172.732;2022-12-11T08:46:10;2.22;;;1.30;;
65825;SDS011;52586;-43.152;172.732;2022-12-11T08:48:41;2.38;;;1.25;;
65825;SDS011;52586;-43.152;172.732;2022-12-11T08:51:15;2.90;;;1.33;;
65825;SDS011;52586;-43.152;172.732;2022-12-11T08:53:47;2.88;;;1.48;;
65825;SDS011;52586;-43.152;172.732;2022-12-11T08:56:19;3.22;;;1.50;;
65825;SDS011;52586;-43.152;172.732;2022-12-11T08:58:50;3.50;;;1.40;;
65825;SDS011;52586;-43.152;172.732;2022-12-11T09:01:22;1.85;;;1.35;;
65825;SDS011;52586;-43.152;172.732;2022-12-11T09:03:54;1.83;;;1.30;;
65825;SDS011;52586;-43.152;172.732;2022-12-11T09:06:27;1.40;;;1.00;;
65825;SDS011;52586;-43.152;172.732;2022-12-11T09:09:00;3.50;;;1.42;;
65825;SDS011;52586;-43.152;172.732;2022-12-11T09:11:33;3.13;;;1.20;;
65825;SDS011;52586;-43.152;172.732;2022-12-11T09:14:05;2.83;;;1.15;;
65825;SDS011;52586;-43.152;172.732;2022-12-11T09:16:36;2.38;;;1.30;;
65825;SDS011;52586;-43.152;172.732;2022-12-11T09:19:09;2.60;;;0.95;;
65825;SDS011;52586;-43.152;172.732;2022-12-11T09:21:44;3.78;;;1.33;;
65825;SDS011;52586;-43.152;172.732;2022-12-11T09:24:16;2.78;;;1.35;;
65825;SDS011;52586;-43.152;172.732;2022-12-11T09:26:47;1.45;;;1.10;;
65825;SDS011;52586;-43.152;172.732;2022-12-11T09:29:18;2.90;;;1.13;;
65825;SDS011;52586;-43.152;172.732;2022-12-11T09:31:48;2.20;;;1.02;;
65825;SDS011;52586;-43.152;172.732;2022-12-11T09:34:19;1.77;;;0.90;;
65825;SDS011;52586;-43.152;172.732;2022-12-11T09:36:52;3.20;;;1.35;;
65825;SDS011;52586;-43.152;172.732;2022-12-11T09:39:23;2.60;;;1.20;;
65825;SDS011;52586;-43.152;172.732;2022-12-11T09:41:55;1.85;;;1.00;;
65825;SDS011;52586;-43.152;172.732;2022-12-11T09:44:34;1.77;;;1.02;;
65825;SDS011;52586;-43.152;172.732;2022-12-11T09:50:03;2.45;;;1.20;;
65825;SDS011;52586;-43.152;172.732;2022-12-11T09:52:50;1.60;;;1.00;;
65825;SDS011;52586;-43.152;172.732;2022-12-11T09:55:33;1.50;;;0.88;;
65825;SDS011;52586;-43.152;172.732;2022-12-11T09:58:12;2.22;;;1.20;;
65825;SDS011;52586;-43.152;172.732;2022-12-11T10:00:52;2.40;;;1.10;;
65825;SDS011;52586;-43.152;172.732;2022-12-11T10:06:21;3.30;;;1.20;;
65825;SDS011;52586;-43.152;172.732;2022-12-11T10:08:59;2.78;;;1.40;;
65825;SDS011;52586;-43.152;172.732;2022-12-11T10:11:43;1.42;;;0.90;;
65825;SDS011;52586;-43.152;172.732;2022-12-11T10:14:23;2.10;;;1.20;;
65825;SDS011;52586;-43.152;172.732;2022-12-11T10:17:03;2.58;;;1.00;;
65825;SDS011;52586;-43.152;172.732;2022-12-11T10:19:38;1.40;;;0.90;;
65825;SDS011;52586;-43.152;172.732;2022-12-11T10:22:12;1.40;;;1.10;;
65825;SDS011;52586;-43.152;172.732;2022-12-11T10:24:48;1.17;;;1.00;;
65825;SDS011;52586;-43.152;172.732;2022-12-11T10:27:24;2.67;;;0.98;;
65825;SDS011;52586;-43.152;172.732;2022-12-11T10:30:00;2.17;;;1.17;;
65825;SDS011;52586;-43.152;172.732;2022-12-11T10:32:42;2.25;;;1.00;;
65825;SDS011;52586;-43.152;172.732;2022-12-11T10:35:24;1.73;;;0.98;;
65825;SDS011;52586;-43.152;172.732;2022-12-11T10:38:01;1.55;;;1.00;;
65825;SDS011;52586;-43.152;172.732;2022-12-11T10:40:45;1.98;;;0.93;;
65825;SDS011;52586;-43.152;172.732;2022-12-11T10:43:18;1.85;;;1.20;;
65825;SDS011;52586;-43.152;172.732;2022-12-11T10:45:49;1.38;;;0.98;;
65825;SDS011;52586;-43.152;172.732;2022-12-11T10:48:21;2.13;;;1.02;;
65825;SDS011;52586;-43.152;172.732;2022-12-11T10:50:56;1.63;;;0.80;;
65825;SDS011;52586;-43.152;172.732;2022-12-11T10:53:28;1.92;;;1.05;;
65825;SDS011;52586;-43.152;172.732;2022-12-11T10:56:03;2.35;;;1.10;;
65825;SDS011;52586;-43.152;172.732;2022-12-11T10:58:36;2.03;;;1.17;;
65825;SDS011;52586;-43.152;172.732;2022-12-11T11:01:15;1.65;;;1.00;;
65825;SDS011;52586;-43.152;172.732;2022-12-11T11:03:53;1.80;;;0.90;;
65825;SDS011;52586;-43.152;172.732;2022-12-11T11:06:26;2.10;;;1.00;;
65825;SDS011;52586;-43.152;172.732;2022-12-11T11:08:58;1.85;;;1.27;;
65825;SDS011;52586;-43.152;172.732;2022-12-11T11:11:32;1.80;;;1.10;;
65825;SDS011;52586;-43.152;172.732;2022-12-11T11:14:05;1.77;;;1.00;;
65825;SDS011;52586;-43.152;172.732;2022-12-11T11:16:41;2.45;;;1.13;;
65825;SDS011;52586;-43.152;172.732;2022-12-11T11:19:16;1.70;;;0.85;;
65825;SDS011;52586;-43.152;172.732;2022-12-11T11:21:51;2.20;;;1.17;;
65825;SDS011;52586;-43.152;172.732;2022-12-11T11:24:29;1.40;;;0.90;;
65825;SDS011;52586;-43.152;172.732;2022-12-11T11:27:04;1.20;;;0.80;;
65825;SDS011;52586;-43.152;172.732;2022-12-11T11:29:41;2.03;;;1.02;;
65825;SDS011;52586;-43.152;172.732;2022-12-11T11:32:14;2.53;;;0.98;;
65825;SDS011;52586;-43.152;172.732;2022-12-11T11:34:50;1.58;;;1.00;;
65825;SDS011;52586;-43.152;172.732;2022-12-11T11:37:24;1.92;;;1.05;;
65825;SDS011;52586;-43.152;172.732;2022-12-11T11:40:00;0.70;;;0.70;;
65825;SDS011;52586;-43.152;172.732;2022-12-11T11:42:39;1.58;;;0.80;;
65825;SDS011;52586;-43.152;172.732;2022-12-11T11:45:15;1.80;;;1.00;;
65825;SDS011;52586;-43.152;172.732;2022-12-11T11:47:51;2.03;;;0.80;;
65825;SDS011;52586;-43.152;172.732;2022-12-11T11:50:29;1.40;;;0.90;;
65825;SDS011;52586;-43.152;172.732;2022-12-11T11:53:04;1.05;;;0.85;;
65825;SDS011;52586;-43.152;172.732;2022-12-11T11:55:40;1.88;;;1.10;;
65825;SDS011;52586;-43.152;172.732;2022-12-11T11:58:21;1.10;;;0.80;;
65825;SDS011;52586;-43.152;172.732;2022-12-11T12:00:55;1.85;;;1.15;;
65825;SDS011;52586;-43.152;172.732;2022-12-11T12:03:25;1.90;;;0.90;;
65825;SDS011;52586;-43.152;172.732;2022-12-11T12:06:00;1.90;;;0.90;;
65825;SDS011;52586;-43.152;172.732;2022-12-11T12:08:39;1.55;;;0.90;;
65825;SDS011;52586;-43.152;172.732;2022-12-11T12:11:16;1.27;;;0.80;;
65825;SDS011;52586;-43.152;172.732;2022-12-11T12:14:00;1.90;;;0.80;;
65825;SDS011;52586;-43.152;172.732;2022-12-11T12:16:38;2.00;;;0.93;;
65825;SDS011;52586;-43.152;172.732;2022-12-11T12:19:14;1.45;;;0.82;;
65825;SDS011;52586;-43.152;172.732;2022-12-11T12:22:02;1.75;;;0.90;;
65825;SDS011;52586;-43.152;172.732;2022-12-11T12:24:42;0.90;;;0.80;;
65825;SDS011;52586;-43.152;172.732;2022-12-11T12:27:23;1.13;;;0.82;;
65825;SDS011;52586;-43.152;172.732;2022-12-11T12:30:03;1.27;;;0.80;;
65825;SDS011;52586;-43.152;172.732;2022-12-11T12:32:41;2.15;;;0.90;;
65825;SDS011;52586;-43.152;172.732;2022-12-11T12:35:29;1.60;;;0.70;;
65825;SDS011;52586;-43.152;172.732;2022-12-11T12:38:09;1.90;;;0.93;;
65825;SDS011;52586;-43.152;172.732;2022-12-11T12:40:49;1.00;;;0.63;;
65825;SDS011;52586;-43.152;172.732;2022-12-11T12:43:30;1.45;;;1.00;;
65825;SDS011;52586;-43.152;172.732;2022-12-11T12:46:19;2.00;;;1.17;;
65825;SDS011;52586;-43.152;172.732;2022-12-11T12:48:58;1.60;;;0.90;;
65825;SDS011;52586;-43.152;172.732;2022-12-11T12:51:31;1.67;;;0.88;;
65825;SDS011;52586;-43.152;172.732;2022-12-11T12:54:03;2.45;;;1.10;;
65825;SDS011;52586;-43.152;172.732;2022-12-11T12:56:39;2.00;;;1.08;;
65825;SDS011;52586;-43.152;172.732;2022-12-11T12:59:18;0.90;;;0.77;;
65825;SDS011;52586;-43.152;172.732;2022-12-11T13:01:52;1.08;;;0.88;;
65825;SDS011;52586;-43.152;172.732;2022-12-11T13:04:33;1.35;;;0.80;;
65825;SDS011;52586;-43.152;172.732;2022-12-11T13:07:18;1.40;;;0.75;;
65825;SDS011;52586;-43.152;172.732;2022-12-11T13:09:56;1.15;;;1.00;;
65825;SDS011;52586;-43.152;172.732;2022-12-11T13:12:33;1.52;;;0.90;;
65825;SDS011;52586;-43.152;172.732;2022-12-11T13:15:26;2.20;;;0.90;;
65825;SDS011;52586;-43.152;172.732;2022-12-11T13:18:28;1.63;;;0.95;;
65825;SDS011;52586;-43.152;172.732;2022-12-11T13:21:00;1.35;;;0.80;;
65825;SDS011;52586;-43.152;172.732;2022-12-11T13:23:51;1.00;;;0.85;;
65825;SDS011;52586;-43.152;172.732;2022-12-11T13:26:28;1.17;;;0.75;;
65825;SDS011;52586;-43.152;172.732;2022-12-11T13:29:00;1.05;;;0.77;;
65825;SDS011;52586;-43.152;172.732;2022-12-11T13:31:34;1.23;;;0.70;;
65825;SDS011;52586;-43.152;172.732;2022-12-11T13:34:12;1.48;;;0.77;;
65825;SDS011;52586;-43.152;172.732;2022-12-11T13:36:48;1.77;;;0.90;;
65825;SDS011;52586;-43.152;172.732;2022-12-11T13:39:21;1.02;;;0.70;;
65825;SDS011;52586;-43.152;172.732;2022-12-11T13:41:54;1.50;;;0.70;;
65825;SDS011;52586;-43.152;172.732;2022-12-11T13:44:29;1.48;;;1.02;;
65825;SDS011;52586;-43.152;172.732;2022-12-11T13:47:03;2.08;;;0.88;;
65825;SDS011;52586;-43.152;172.732;2022-12-11T13:49:41;1.23;;;0.75;;
65825;SDS011;52586;-43.152;172.732;2022-12-11T13:52:15;1.00;;;0.70;;
65825;SDS011;52586;-43.152;172.732;2022-12-11T13:54:48;1.17;;;0.80;;
65825;SDS011;52586;-43.152;172.732;2022-12-11T13:57:21;1.20;;;0.80;;
65825;SDS011;52586;-43.152;172.732;2022-12-11T13:59:54;1.70;;;0.80;;
65825;SDS011;52586;-43.152;172.732;2022-12-11T14:02:26;1.05;;;0.80;;
65825;SDS011;52586;-43.152;172.732;2022-12-11T14:05:06;2.00;;;0.70;;
65825;SDS011;52586;-43.152;172.732;2022-12-11T14:07:40;1.38;;;0.80;;
65825;SDS011;52586;-43.152;172.732;2022-12-11T14:10:15;1.40;;;0.93;;
65825;SDS011;52586;-43.152;172.732;2022-12-11T14:12:49;0.90;;;0.65;;
65825;SDS011;52586;-43.152;172.732;2022-12-11T14:15:22;1.40;;;0.80;;
65825;SDS011;52586;-43.152;172.732;2022-12-11T14:17:53;2.05;;;1.00;;
65825;SDS011;52586;-43.152;172.732;2022-12-11T14:20:28;0.95;;;0.70;;
65825;SDS011;52586;-43.152;172.732;2022-12-11T14:23:04;1.70;;;0.70;;
65825;SDS011;52586;-43.152;172.732;2022-12-11T14:25:35;0.98;;;0.63;;
65825;SDS011;52586;-43.152;172.732;2022-12-11T14:28:12;1.48;;;0.70;;
65825;SDS011;52586;-43.152;172.732;2022-12-11T14:30:45;1.45;;;0.82;;
65825;SDS011;52586;-43.152;172.732;2022-12-11T14:33:19;1.17;;;1.00;;
65825;SDS011;52586;-43.152;172.732;2022-12-11T14:35:54;1.45;;;0.80;;
65825;SDS011;52586;-43.152;172.732;2022-12-11T14:38:26;2.08;;;0.70;;
65825;SDS011;52586;-43.152;172.732;2022-12-11T14:41:02;0.93;;;0.55;;
65825;SDS011;52586;-43.152;172.732;2022-12-11T14:43:41;1.35;;;0.80;;
65825;SDS011;52586;-43.152;172.732;2022-12-11T14:46:15;1.55;;;0.82;;
65825;SDS011;52586;-43.152;172.732;2022-12-11T14:48:51;1.70;;;0.90;;
65825;SDS011;52586;-43.152;172.732;2022-12-11T14:51:30;0.82;;;0.63;;
65825;SDS011;52586;-43.152;172.732;2022-12-11T14:54:06;1.20;;;0.80;;
65825;SDS011;52586;-43.152;172.732;2022-12-11T14:56:43;1.30;;;0.73;;
65825;SDS011;52586;-43.152;172.732;2022-12-11T14:59:16;1.17;;;0.77;;